createdAt,value
2023-01-10T08:04:32.766Z,34.60
2023-01-10T08:06:59.779Z,31.50
2023-01-10T08:09:26.589Z,37.30
2023-01-10T08:11:53.411Z,39.20
2023-01-10T08:14:20.240Z,30.80
2023-01-10T08:16:47.081Z,28.50
2023-01-10T08:19:17.016Z,27.70
2023-01-10T08:21:44.106Z,32.20
2023-01-10T08:24:11.282Z,24.40
2023-01-10T08:26:38.117Z,45.70
2023-01-10T08:29:05.390Z,22.10
2023-01-10T08:31:32.242Z,87.40
2023-01-10T08:33:59.175Z,64.70
2023-01-10T08:36:26.285Z,58.70
2023-01-10T08:38:55.333Z,57.00
2023-01-10T08:41:22.825Z,100.10
2023-01-10T08:43:50.793Z,257.10
2023-01-10T08:46:19.044Z,88.40
2023-01-10T08:48:46.339Z,1541.40
2023-01-10T08:51:13.169Z,441.60
2023-01-10T08:53:40.181Z,1249.60
2023-01-10T08:56:07.391Z,882.80
2023-01-10T08:58:34.221Z,979.80
2023-01-10T09:01:04.722Z,563.50
2023-01-10T09:03:31.837Z,666.40
2023-01-10T09:05:59.895Z,583.90
2023-01-10T09:08:26.748Z,441.10
2023-01-10T09:10:53.944Z,390.70
2023-01-10T09:13:21.064Z,465.30
2023-01-10T09:15:47.984Z,238.30
2023-01-10T09:18:14.882Z,70.40
2023-01-10T09:20:42.286Z,28.30
2023-01-10T09:23:17.777Z,24.40
2023-01-10T09:25:45.316Z,19.30
2023-01-10T09:28:12.218Z,19.90
2023-01-10T09:30:39.058Z,28.50
2023-01-10T09:33:06.264Z,18.50
2023-01-10T09:35:35.603Z,28.50
2023-01-10T09:38:02.594Z,31.90
2023-01-10T09:40:44.730Z,22.70
2023-01-10T09:43:17.713Z,25.30
2023-01-10T09:45:50.907Z,17.40
2023-01-10T09:48:44.227Z,34.70
2023-01-10T09:51:30.657Z,18.20
2023-01-10T09:54:10.733Z,18.60
2023-01-10T09:56:40.822Z,17.40
2023-01-10T14:51:35.095Z,15.40
2023-01-10T14:54:04.244Z,12.80
2023-01-10T14:56:39.120Z,12.10
2023-01-10T14:59:19.195Z,13.00
2023-01-10T15:01:48.351Z,14.30
2023-01-10T15:04:19.664Z,11.30
2023-01-10T15:06:57.853Z,13.50
2023-01-10T15:09:25.281Z,18.30
2023-01-10T15:11:52.440Z,15.70
2023-01-10T15:14:19.507Z,17.30
2023-01-10T15:16:46.794Z,24.20
2023-01-10T15:19:16.828Z,27.50
2023-01-10T15:21:44.692Z,26.00
2023-01-10T15:24:32.823Z,21.20
2023-01-10T15:27:01.904Z,23.10
2023-01-10T15:29:28.808Z,24.90
2023-01-10T15:32:10.743Z,24.40
2023-01-10T15:34:38.842Z,20.80
2023-01-10T15:37:06.177Z,17.60
2023-01-10T15:39:34.954Z,19.20
2023-01-10T15:42:08.496Z,19.00
2023-01-10T15:44:39.468Z,14.40
2023-01-10T15:47:27.331Z,16.60
2023-01-10T15:49:54.670Z,15.30
2023-01-10T15:52:22.581Z,12.60
2023-01-10T15:54:49.658Z,11.70
2023-01-10T15:57:25.487Z,16.40
2023-01-10T15:59:52.379Z,10.40
2023-01-10T16:02:23.054Z,10.60
2023-01-10T16:04:52.723Z,10.90
2023-01-10T16:07:31.274Z,12.90
2023-01-10T16:10:06.463Z,13.20
2023-01-10T16:12:57.170Z,10.70
2023-01-10T16:15:25.774Z,11.40
2023-01-10T16:17:52.707Z,13.20
2023-01-10T16:20:29.162Z,9.60
2023-01-10T16:22:56.029Z,13.90
2023-01-10T16:25:34.701Z,11.70
2023-01-10T16:28:01.553Z,14.30
2023-01-10T16:30:30.256Z,15.30
2023-01-10T16:33:00.135Z,16.40
2023-01-10T16:35:27.043Z,11.90
2023-01-10T16:37:55.229Z,16.10
2023-01-10T16:40:27.747Z,12.70
2023-01-10T16:43:13.890Z,15.50
2023-01-10T16:45:40.826Z,13.10
2023-01-10T16:48:07.750Z,13.60
2023-01-10T16:50:34.566Z,18.80
2023-01-10T16:53:01.512Z,16.60
2023-01-10T16:55:38.823Z,17.10
2023-01-10T16:58:05.688Z,14.10
2023-01-10T17:00:32.782Z,12.60
2023-01-10T17:02:59.717Z,13.80
2023-01-10T17:05:26.653Z,13.70
2023-01-10T17:07:53.488Z,14.90
2023-01-10T17:10:20.309Z,15.60
2023-01-10T17:12:47.288Z,14.80
2023-01-10T17:15:14.812Z,11.90
2023-01-10T17:17:45.138Z,12.60
2023-01-10T17:20:13.964Z,13.80
2023-01-10T17:22:41.801Z,15.40
2023-01-10T17:25:15.992Z,13.20
2023-01-10T17:27:43.595Z,11.90
2023-01-10T17:30:12.010Z,13.00
2023-01-10T17:32:39.007Z,15.60
2023-01-10T17:35:06.708Z,14.10
2023-01-10T17:37:33.610Z,15.10
2023-01-10T17:40:00.501Z,11.90
2023-01-10T17:42:27.376Z,12.20
2023-01-10T17:44:54.202Z,15.00
2023-01-10T17:47:21.125Z,10.80
2023-01-10T17:49:48.049Z,14.00
2023-01-10T17:52:14.836Z,14.50
2023-01-10T17:54:41.818Z,12.40
2023-01-10T17:57:08.663Z,12.90
2023-01-10T17:59:36.650Z,11.10
2023-01-10T18:02:03.839Z,12.50
2023-01-10T18:04:31.264Z,14.20
2023-01-10T18:06:58.173Z,16.00
2023-01-10T18:09:25.256Z,16.40
2023-01-10T18:11:52.061Z,16.70
2023-01-10T18:14:37.342Z,12.30
2023-01-10T18:17:09.127Z,17.50
2023-01-10T18:19:36.470Z,14.40
2023-01-10T18:22:26.389Z,14.40
2023-01-10T18:24:54.019Z,16.70
2023-01-10T18:27:22.066Z,15.00
2023-01-10T18:29:50.024Z,13.00
2023-01-10T18:32:17.278Z,15.40
2023-01-10T18:34:44.303Z,16.30
2023-01-10T18:37:11.346Z,15.20
2023-01-10T18:39:38.243Z,16.50
2023-01-10T18:42:05.356Z,12.90
2023-01-10T18:44:32.698Z,13.00
2023-01-10T18:46:59.701Z,16.40
2023-01-10T18:49:26.529Z,11.70
2023-01-10T18:51:53.462Z,13.70
2023-01-10T18:54:20.561Z,14.20
2023-01-10T18:56:47.492Z,16.80
2023-01-10T18:59:15.208Z,14.00
2023-01-10T19:01:42.184Z,12.10
2023-01-10T19:04:09.105Z,13.90
2023-01-10T19:06:36.176Z,12.40
2023-01-10T19:09:03.125Z,12.10
2023-01-10T19:11:29.899Z,11.60
2023-01-10T19:13:56.745Z,15.50
2023-01-10T19:16:28.403Z,13.20
2023-01-10T19:18:56.068Z,12.10
2023-01-10T19:21:23.391Z,13.40
2023-01-10T19:23:52.074Z,13.20
2023-01-10T19:26:19.633Z,14.10
2023-01-10T19:28:46.641Z,13.90
2023-01-10T19:31:21.739Z,11.80
2023-01-10T19:33:50.735Z,13.30
2023-01-10T19:36:18.959Z,16.20
2023-01-10T19:38:45.991Z,15.60
2023-01-10T19:41:14.727Z,13.00
2023-01-10T19:43:41.604Z,12.60
2023-01-10T19:46:09.668Z,9.40
2023-01-10T19:48:38.596Z,11.10
2023-01-10T19:51:09.901Z,12.60
2023-01-10T19:53:37.644Z,11.40
2023-01-10T19:56:05.592Z,11.40
2023-01-10T19:58:33.029Z,12.30
2023-01-10T20:01:10.450Z,11.50
2023-01-10T20:03:39.002Z,11.90
2023-01-10T20:06:06.240Z,10.70
2023-01-10T20:08:33.060Z,14.00
2023-01-10T20:11:07.030Z,13.50
2023-01-10T20:13:35.676Z,14.00
2023-01-10T20:16:03.342Z,12.10
2023-01-10T20:18:30.400Z,10.80
2023-01-10T20:20:57.264Z,11.10
2023-01-10T20:23:24.345Z,11.00
2023-01-10T20:26:09.921Z,13.80
2023-01-10T20:28:36.825Z,11.00
2023-01-10T20:31:05.049Z,14.00
2023-01-10T20:33:34.436Z,13.10
2023-01-10T20:36:05.990Z,10.70
2023-01-10T20:38:33.951Z,15.40
2023-01-10T20:41:06.050Z,12.30
2023-01-10T20:43:33.012Z,12.20
2023-01-10T20:46:11.113Z,9.60
2023-01-10T20:48:38.369Z,12.80
2023-01-10T20:51:05.371Z,9.40
2023-01-10T20:53:32.410Z,10.90
2023-01-10T20:56:07.426Z,7.90
2023-01-10T20:58:35.241Z,12.30
2023-01-10T21:01:02.427Z,12.30
2023-01-10T21:03:29.383Z,9.70
2023-01-10T21:05:58.228Z,8.70
2023-01-10T21:08:25.157Z,7.80
2023-01-10T21:10:52.266Z,9.20
2023-01-10T21:13:19.154Z,8.00
2023-01-10T21:15:46.552Z,8.40
2023-01-10T21:18:14.179Z,8.70
2023-01-10T21:20:45.178Z,7.70
2023-01-10T21:23:12.702Z,8.00
2023-01-10T21:25:39.819Z,6.80
2023-01-10T21:28:09.974Z,7.80
2023-01-10T21:30:37.406Z,7.40
2023-01-10T21:33:04.415Z,8.40
2023-01-10T21:35:31.621Z,6.50
2023-01-10T21:37:58.438Z,8.20
2023-01-10T21:40:25.958Z,7.30
2023-01-10T21:42:53.156Z,10.50
2023-01-10T21:45:21.257Z,8.00
2023-01-10T21:47:51.528Z,8.60
2023-01-10T21:50:20.661Z,8.30
2023-01-10T21:52:49.084Z,7.80
2023-01-10T21:55:16.547Z,9.50
2023-01-10T21:57:43.481Z,10.40
2023-01-10T22:00:10.991Z,9.70
2023-01-10T22:02:40.749Z,10.20
2023-01-10T22:05:08.332Z,9.50
2023-01-10T22:07:35.161Z,9.00
2023-01-10T22:10:01.973Z,9.90
2023-01-10T22:12:30.728Z,11.20
2023-01-10T22:14:57.719Z,8.70
2023-01-10T22:17:24.590Z,11.90
2023-01-10T22:19:51.460Z,12.60
2023-01-10T22:22:18.993Z,14.50
2023-01-10T22:24:48.072Z,11.90
2023-01-10T22:27:15.583Z,19.50
2023-01-10T22:29:42.787Z,14.80
2023-01-10T22:32:09.626Z,13.80
2023-01-10T22:34:36.918Z,15.80
2023-01-10T22:37:04.644Z,12.90
2023-01-10T22:39:31.420Z,9.50
2023-01-10T22:41:58.324Z,10.80
2023-01-10T22:44:26.777Z,9.20
2023-01-10T22:46:54.636Z,8.70
2023-01-10T22:49:21.672Z,10.10
2023-01-10T22:51:48.476Z,12.90
2023-01-10T22:54:18.839Z,9.10
2023-01-10T22:56:46.314Z,7.60
2023-01-10T22:59:13.644Z,11.80
2023-01-10T23:01:40.610Z,9.60
2023-01-10T23:04:07.568Z,10.40
2023-01-10T23:06:34.475Z,7.60
2023-01-10T23:09:01.321Z,8.70
2023-01-10T23:11:28.150Z,10.70
2023-01-10T23:13:55.009Z,8.50
2023-01-10T23:16:28.717Z,12.10
2023-01-10T23:18:59.684Z,7.80
2023-01-10T23:21:26.783Z,8.80
2023-01-10T23:23:54.647Z,9.70
2023-01-10T23:26:21.641Z,10.50
2023-01-10T23:28:49.860Z,10.00
2023-01-10T23:31:18.565Z,10.50
2023-01-10T23:33:45.380Z,9.70
2023-01-10T23:36:12.412Z,9.50
2023-01-10T23:38:39.318Z,10.30
2023-01-10T23:41:06.195Z,13.40
2023-01-10T23:43:33.041Z,14.50
2023-01-10T23:46:00.655Z,14.80
2023-01-10T23:48:27.784Z,11.80
2023-01-10T23:50:54.692Z,10.00
2023-01-10T23:53:21.626Z,14.70
2023-01-10T23:55:48.453Z,11.30
2023-01-10T23:58:17.057Z,10.50
